Bradenton, FL (34201)

2:47 PM EDT on July 01, 2016 (GMT -0400)
Remington Court | Change Station
CLOSE
Current Station
Personal Weather Station
Location: Sarasota, FL
Elevation: 16 ft
Nearby Weather Stations

Elev 16 ft 27.42 °N, 82.48 °W | Updated 6 minutes ago

Partly Cloudy
Partly Cloudy
94.8 °F
Feels Like 110 °F
N
-
Wind Variable Wind from North

Today
High -- | Low -- °F
--% Chance of Precip.
Yesterday
High -- | Low -- °F
Precip. -- in
6:38 AM 8:29 PM
Waning Crescent, 10% visible
Pressure 30.04 in
Visibility -9999.0 miles
Clouds Few 2100 ft
Heat Index 110 °F
Dew Point 78 °F
Humidity 57%
Rainfall -999.00 in
Snow Depth Not available.
UV 15 out of 12
Pollen 3.20 out of 12
Air Quality Not available.
Flu Activity Not available.
METAR KSRQ 011753Z 26008KT FEW021 33/22 A3004 RMK AO2 SLP173 T03280222 10333 20289 $

More Conditions Fewer Conditions

Pressure 30.04 in
Visibility -9999.0 miles
Clouds Few 2100 ft
Heat Index 110 °F
Dew Point 78 °F
Humidity 57%
Rainfall -999.00 in
Snow Depth Not available.
UV 15 out of 12
Pollen 3.20 out of 12
Air Quality Not available.
Flu Activity Not available.
METAR KSRQ 011753Z 26008KT FEW021 33/22 A3004 RMK AO2 SLP173 T03280222 10333 20289 $

More Conditions Fewer Conditions

10-Day Weather Forecast

Almanac

Astronomy

Jul. 01, 2016 Rise Set
Actual Time 6:38 AM EDT 8:29 PM EDT
Civil Twilight 6:12 AM EDT 8:55 PM EDT
Nautical Twilight 5:40 AM EDT 9:27 PM EDT
Astronomical Twilight 5:06 AM EDT 10:00 PM EDT
Moon 4:06 AM EDT 5:42 PM EDT
Length of Visible Light 14h 43m
Length of Day
13h 50m
Tomorrow will be 0m 24s shorter.
Waning Crescent, 10% of the Moon is Illuminated
Today
Waning Crescent
Jul 4
New
Jul 11
First Quarter
Jul 19
Full
Jul 26
Last Quarter

Yesterday's Extremes

State Highs State Lows

Community

WunderPhotos

Upload Photos

1,922,169 photos uploaded!

Nearby

Snow Depth

Station Depth Elevation
No new snow has been reported.

Earthquake Activity

City Distance Mag. Time & Date
No recent earthquake activity has been reported nearby.
Minimum magnitude displayed is 2.5.

Coastal Water Temperatures

Place Temperature
Clearwater Beach, FL 89.1 °F
Port Manatee, FL 93.0 °F
St Petersburg, FL 89.1 °F
Old Port Tampa, FL 88.0 °F
McKay Bay Entrance, FL 90.0 °F

Nearby Weather Stations